Latest Coastal Weather Observations for Maningrida Airport

IDD60701

Issued at 5:11 pm CST Friday 27 February 2015 (issued every 10 minutes, with the page automatically refreshed every 10 minutes)

About coastal observations | Map of coastal stations | Coastal observations for NT | Marine services | Other Formats
Station Details ID: 014405 Name: MANINGRIDA AIRPORT Lat: -12.06 Lon: 134.23 Height: 28.1 m
Data from the previous 72 hours. | See also: Recent months at Maningrida Airport
Date/Time
CST
Temp

°C
Wind Pressure Rain
since 9am
mm
Weather Cloud Vis
km
Sea
Height
m
Swell
Dir
 
Speed
knots
Gust
knots
hPa Trend Height
m
Period
s
Dir
27/05:00pm 28.2 NW 10 15 1004.3 - 0.0 - Partly cloudy 10 - - - -
27/04:30pm 29.1 NNW 18 25 1003.7 - 0.0 - Partly cloudy 10 - - - -
27/04:23pm 29.3 NNW 15 25 1003.6 - 0.0 - Partly cloudy 10 - - - -
27/04:00pm 29.6 NNW 17 23 1004.0 - 0.0 - - 10 - - - -
27/03:30pm 30.5 N 16 19 1003.7 - 0.0 - Partly cloudy 10 - - - -
27/03:00pm 30.1 N 14 18 1003.6 - 0.0 - Partly cloudy 10 - - - -
27/02:30pm 30.4 N 12 15 1004.0 - 0.0 - Partly cloudy 10 - - - -
27/02:00pm 31.8 NNW 10 14 1004.3 - 0.0 - - 10 - - - -
27/01:30pm 32.5 WNW 7 10 1004.8 - 0.0 - - 10 - - - -
27/01:00pm 31.7 WNW 6 9 1005.6 - 0.0 - - 10 - - - -
27/12:30pm 31.6 WNW 6 9 1006.2 - 0.0 - Partly cloudy 10 - - - -
27/12:00pm 30.1 N 7 10 1006.6 - 0.0 - Partly cloudy 10 - - - -
27/11:30am 30.1 NW 6 8 1006.9 - 0.0 - Partly cloudy 10 - - - -
27/11:00am 29.2 NNW 6 8 1007.2 - 0.0 - Cloudy 10 - - - -
27/10:30am 28.6 NNW 7 9 1007.5 - 0.0 - Partly cloudy 10 - - - -
27/10:00am 29.3 W 3 4 1007.5 - 0.0 - Partly cloudy 10 - - - -
27/09:30am 28.3 WSW 5 8 1007.4 - 0.0 - - 10 - - - -
27/09:00am 28.2 SW 5 8 1007.3 - 1.8 - Mostly clear 10 - - - -
27/08:30am 27.1 SW 6 12 1006.9 - 1.8 - - 10 - - - -
27/08:00am 26.5 SW 5 10 1006.9 - 1.8 - - 10 - - - -
27/07:30am 25.3 SW 5 8 1006.4 - 1.8 - - 10 - - - -
27/07:00am 24.9 SW 4 5 1006.2 - 1.8 - - 10 - - - -
27/06:30am 24.8 SW 4 5 1006.4 - 1.8 - - 10 - - - -
27/06:00am 24.9 CALM 0 3 1006.3 - 1.8 - Cloudy 10 - - - -
27/05:30am 24.9 SW 3 4 1005.8 - 1.8 - Partly cloudy 10 - - - -
27/05:00am 24.7 WSW 2 4 1005.6 - 1.8 - Cloudy 10 - - - -
27/04:30am 24.4 SW 1 5 1005.6 - 1.8 - Cloudy 10 - - - -
27/04:00am 24.4 SW 1 4 1005.5 - 1.8 - Partly cloudy 10 - - - -
27/03:30am 24.6 SW 1 3 1005.5 - 1.8 - Partly cloudy 10 - - - -
27/03:00am 24.5 CALM 0 0 1005.8 - 1.8 - Cloudy 10 - - - -
27/02:30am 24.5 CALM 0 0 1006.1 - 1.8 - Partly cloudy 10 - - - -
27/02:00am 24.5 WSW 3 5 1006.0 - 1.8 - Partly cloudy 10 - - - -
27/01:30am 24.4 WNW 1 4 1006.6 - 1.8 - - 10 - - - -
27/01:00am 24.5 SSW 5 7 1006.9 - 1.8 - Partly cloudy 10 - - - -
27/12:30am 24.5 W 5 6 1007.1 - 1.8 - - 10 - - - -
27/12:00am 24.7 WSW 4 5 1007.8 - 1.8 - Cloudy 10 - - - -
 
Date/Time
CST
Temp

°C
Wind Pressure Rain
since 9am
mm
Weather Cloud Vis
km
Sea
Height
m
Swell
Dir
 
Speed
knots
Gust
knots
hPa Trend Height
m
Period
s
Dir
26/11:30pm 24.6 WSW 3 4 1008.0 - 1.8 - Partly cloudy 10 - - - -
26/11:00pm 24.4 W 2 4 1007.9 - 1.8 - Partly cloudy 10 - - - -
26/10:30pm 24.5 SW 4 5 1007.6 - 1.8 - Partly cloudy 10 - - - -
26/10:00pm 24.6 S 3 5 1007.2 - 1.8 - - 10 - - - -
26/09:30pm 24.6 SSE 6 9 1006.8 - 1.8 - - 10 - - - -
26/09:00pm 24.8 SSE 6 8 1007.0 - 1.8 - Cloudy 10 - - - -
26/08:30pm 24.8 SSE 4 6 1006.5 - 1.8 - - 10 - - - -
26/08:00pm 24.7 SSW 2 4 1006.2 - 1.8 - - 10 - - - -
26/07:30pm 24.7 SSE 7 10 1005.6 - 1.8 - - 10 - - - -
26/07:00pm 24.8 S 5 7 1004.7 - 1.8 - - 10 - - - -
26/06:30pm 24.5 W 4 6 1004.2 - 1.8 - - 10 - - - -
26/06:00pm 24.7 SW 4 6 1004.3 - 1.8 - Cloudy 10 - - - -
26/05:30pm 24.7 SW 5 7 1005.0 - 1.8 - - 10 - - - -
26/05:00pm 24.7 WSW 4 6 1005.1 - 1.8 - - 10 - - - -
26/04:30pm 24.3 WSW 6 10 1005.2 - 1.8 - - 10 - - - -
26/04:00pm 25.4 SW 5 8 1005.3 - 1.8 - Partly cloudy 10 - - - -
26/03:30pm 25.9 S 5 7 1004.7 - 1.4 - Partly cloudy 10 - - - -
26/03:00pm 25.9 SSW 5 8 1005.1 - 0.2 Rain Cloudy 10 - - - -
26/02:30pm 26.2 SE 8 11 1005.4 - 0.2 - Partly cloudy 10 - - - -
26/02:00pm 28.0 E 11 16 1005.1 - 0.0 - Partly cloudy 10 - - - -
26/01:30pm 29.7 N 10 14 1005.1 - 0.0 - Partly cloudy 10 - - - -
26/01:00pm 30.4 N 11 14 1005.3 - 0.0 - - 10 - - - -
26/12:30pm 32.3 NNW 10 13 1006.0 - 0.0 - - 10 - - - -
26/12:00pm 33.0 NW 5 7 1006.8 - 0.0 - Mostly clear 10 - - - -
26/11:30am 32.1 WNW 4 7 1007.3 - 0.0 - - 10 - - - -
26/11:00am 31.7 SW 5 6 1007.7 - 0.0 - - 10 - - - -
26/10:30am 30.6 WSW 5 9 1007.8 - 0.0 - - 10 - - - -
26/10:00am 30.4 SW 4 7 1007.8 - 0.0 - - 10 - - - -
26/09:30am 29.6 SSW 5 9 1008.2 - 0.0 - - 10 - - - -
26/09:00am 28.8 SSW 5 8 1008.5 - 0.0 - Mostly clear 10 - - - -
26/08:30am 27.7 SW 5 7 1008.4 - 0.0 - - 10 - - - -
26/08:00am 27.0 SSW 4 8 1008.1 - 0.0 - Partly cloudy 10 - - - -
26/07:30am 26.4 SW 3 6 1007.7 - 0.0 - Partly cloudy 10 - - - -
26/07:00am 26.1 WSW 2 4 1007.2 - 0.0 - - 10 - - - -
26/06:30am 26.0 WSW 3 5 1006.6 - 0.0 - Partly cloudy 10 - - - -
26/06:00am 26.0 W 3 5 1006.4 - 0.0 - Cloudy 10 - - - -
26/05:30am 26.0 W 3 5 1006.3 - 0.0 - - 10 - - - -
26/05:00am 26.0 W 2 4 1006.1 - 0.0 - Partly cloudy 10 - - - -
26/04:30am 26.1 W 3 4 1005.8 - 0.0 - Cloudy 10 - - - -
26/04:00am 26.1 WSW 3 5 1005.8 - 0.0 - Cloudy 10 - - - -
26/03:30am 26.1 WSW 2 4 1005.9 - 0.0 - - 10 - - - -
26/03:00am 26.3 WSW 4 6 1006.0 - 0.0 - Cloudy 10 - - - -
26/02:30am 26.3 WSW 3 5 1006.2 - 0.0 - - 10 - - - -
26/02:00am 26.4 W 3 4 1006.5 - 0.0 - Partly cloudy 10 - - - -
26/01:30am 26.6 WNW 3 5 1006.7 - 0.0 - Partly cloudy 10 - - - -
26/01:00am 26.8 W 4 7 1007.0 - 0.0 - - 10 - - - -
26/12:30am 26.8 W 3 6 1007.2 - 0.0 - - 10 - - - -
26/12:00am 26.6 WNW 4 4 1007.4 - 0.0 - Mostly clear 10 - - - -
 
Date/Time
CST
Temp

°C
Wind Pressure Rain
since 9am
mm
Weather Cloud Vis
km
Sea
Height
m
Swell
Dir
 
Speed
knots
Gust
knots
hPa Trend Height
m
Period
s
Dir
25/11:30pm 26.8 NW 3 4 1007.7 - 0.0 - - 10 - - - -
25/11:00pm 27.3 NW 3 5 1007.7 - 0.0 - - 10 - - - -
25/10:30pm 27.2 WNW 1 3 1007.6 - 0.0 - - 10 - - - -
25/10:00pm 27.9 WNW 2 4 1007.2 - 0.0 - - 10 - - - -
25/09:30pm 28.3 WNW 4 5 1006.9 - 0.0 - - 10 - - - -
25/09:00pm 28.7 W 4 6 1006.6 - 0.0 - - 10 - - - -
25/08:30pm 28.6 W 2 5 1006.3 - 0.0 - - 10 - - - -
25/08:00pm 29.1 WNW 3 5 1005.9 - 0.0 - - 10 - - - -
25/07:30pm 29.3 NW 6 8 1005.5 - 0.0 - - 10 - - - -
25/07:00pm 29.3 NNW 5 7 1005.3 - 0.0 - - 10 - - - -
25/06:30pm 29.7 NNW 7 9 1005.1 - 0.0 - - 10 - - - -
25/06:00pm 30.1 NNW 6 7 1004.6 - 0.0 - - 10 - - - -
25/05:30pm 30.5 NNW 7 8 1004.5 - 0.0 - - 10 - - - -
25/05:00pm 30.8 NNW 7 8 1004.6 - 0.0 - - 10 - - - -
25/04:30pm 31.3 N 6 7 1004.5 - 0.0 - - 10 - - - -
25/04:00pm 31.2 NNW 9 11 1004.5 - 0.0 - - 10 - - - -
25/03:30pm 31.5 NNW 7 9 1004.7 - 0.0 - Partly cloudy 10 - - - -
25/03:00pm 32.0 N 7 10 1004.8 - 0.0 - Mostly clear 10 - - - -
25/02:30pm 31.6 N 8 9 1005.4 - 0.0 - Partly cloudy 10 - - - -
25/02:00pm 32.1 N 5 9 1005.9 - 0.0 - - 10 - - - -
25/01:30pm 32.1 SSW 2 7 1006.8 - 0.0 - - 10 - - - -
25/01:00pm 31.8 SSW 5 8 1007.4 - 0.0 - Partly cloudy 10 - - - -
25/12:30pm 31.9 WSW 5 8 1008.0 - 0.0 - Partly cloudy 10 - - - -
25/12:00pm 31.5 W 6 10 1008.5 - 0.0 - Partly cloudy 10 - - - -
25/11:30am 31.5 WSW 5 9 1008.9 - 0.0 - Partly cloudy 10 - - - -
25/11:00am 30.8 SW 6 10 1009.1 - 0.0 - Partly cloudy 10 - - - -
25/10:30am 30.2 SW 5 8 1009.3 - 0.0 - - 10 - - - -
25/10:00am 28.5 WSW 6 9 1009.9 - 0.0 - - 10 - - - -
25/09:30am 27.3 SW 6 9 1010.2 - 0.0 - - 10 - - - -
25/09:00am 26.7 SW 5 7 1010.1 - 27.2 - Mostly cloudy 10 - - - -
25/08:30am 25.5 SSW 3 5 1009.9 - 27.2 - - 10 - - - -
25/08:00am 25.0 S 4 6 1009.4 - 27.2 - - 10 - - - -
25/07:30am 24.8 SW 2 4 1009.1 - 27.2 - Partly cloudy 10 - - - -
25/07:00am 24.6 SSW 4 5 1008.7 - 26.6 - Partly cloudy 10 - - - -
25/06:30am 24.6 SSE 5 7 1008.6 - 26.4 - Partly cloudy 10 - - - -
25/06:00am 24.5 S 4 5 1008.2 - 26.4 - Cloudy 10 - - - -
25/05:30am 24.5 S 5 6 1007.9 - 26.4 - - 10 - - - -
25/05:00am 24.3 S 5 7 1007.9 - 26.4 - - 10 - - - -
25/04:30am 24.1 S 4 6 1007.5 - 26.4 - - 10 - - - -
25/04:00am 24.1 S 4 6 1007.3 - 26.4 - - 10 - - - -
25/03:30am 24.1 S 4 6 1006.9 - 26.4 - - 10 - - - -
25/03:00am 24.1 S 4 5 1007.2 - 26.4 Rain Mostly cloudy 10 - - - -
25/02:30am 24.1 SSW 3 4 1007.5 - 26.4 - - 10 - - - -
25/02:00am 24.1 SW 3 4 1007.9 - 26.4 - - 10 - - - -
25/01:30am 24.1 SW 3 4 1008.3 - 26.4 - - 10 - - - -
25/01:00am 24.1 WSW 3 6 1008.7 - 26.4 - - 10 - - - -
25/12:30am 24.1 WSW 4 7 1009.2 - 26.4 - - 10 - - - -
25/12:00am 24.3 WSW 4 7 1009.2 - 26.4 - Cloudy 10 - - - -
 
Date/Time
CST
Temp

°C
Wind Pressure Rain
since 9am
mm
Weather Cloud Vis
km
Sea
Height
m
Swell
Dir
 
Speed
knots
Gust
knots
hPa Trend Height
m
Period
s
Dir
24/11:30pm 24.4 WSW 3 4 1009.1 - 26.4 - - 10 - - - -
24/11:00pm 24.3 SW 4 5 1008.4 - 26.4 - - 10 - - - -
24/10:30pm 24.2 SSW 4 7 1008.2 - 26.4 - - 10 - - - -
24/10:00pm 24.0 SSW 5 9 1008.3 - 26.4 - - 10 - - - -
24/09:30pm 23.7 SSW 7 10 1008.8 - 26.4 - Partly cloudy 10 - - - -
24/09:00pm 23.5 SSW 5 8 1009.4 - 26.2 Showers Cloudy 10 - - - -
24/08:30pm 23.3 SW 4 5 1009.2 - 26.2 - - 10 - - - -
24/08:00pm 23.3 WSW 5 9 1009.5 - 26.2 - Partly cloudy 10 - - - -
24/07:30pm 23.1 WNW 3 5 1009.5 - 26.2 - Partly cloudy 10 - - - -
24/07:02pm 22.3 W 5 7 1008.8 - 26.2 - Partly cloudy 9 - - - -
24/07:00pm 22.2 W 5 7 1008.8 - 26.0 - Partly cloudy 8 - - - -
24/06:30pm 22.9 SE 18 29 1009.6 - 20.6 - Partly cloudy 0.7 - - - -
24/06:29pm 23.0 SE 18 29 1009.7 - 19.4 - Partly cloudy 0.7 - - - -
24/06:24pm 23.4 SE 16 29 1009.6 - 12.4 - Partly cloudy 2 - - - -
24/06:21pm 24.2 SSE 11 23 1009.6 - 7.8 - Partly cloudy 5 - - - -
24/06:19pm 24.5 S 8 23 1009.5 - 5.8 - Partly cloudy 10 - - - -
24/06:15pm 25.2 WSW 2 10 1009.0 - 5.4 - Partly cloudy 9 - - - -
24/06:00pm 25.1 W 2 5 1008.3 - 5.0 Showers Cloudy 5 - - - -
24/05:30pm 25.4 S 6 9 1006.9 - 2.2 - Partly cloudy 5 - - - -
24/05:29pm 25.6 S 6 7 1006.9 - 2.0 - Partly cloudy 5 - - - -

Other Formats:

Comma delimited format used in spreadsheet applications
http://www.bom.gov.au/fwo/IDD60701/IDD60701.95142.axf

JavaScript Object Notation format (JSON) in row-major order
http://www.bom.gov.au/fwo/IDD60701/IDD60701.95142.json